createdAt,value
2019-03-23T00:00:04.958Z,7.90
2019-03-23T00:01:05.151Z,7.90
2019-03-23T00:02:05.354Z,7.80
2019-03-23T00:03:05.459Z,7.80
2019-03-23T00:04:08.141Z,7.90
2019-03-23T00:05:05.305Z,7.80
2019-03-23T00:06:07.974Z,7.80
2019-03-23T00:07:07.739Z,7.80
2019-03-23T00:08:04.930Z,7.80
2019-03-23T00:09:05.305Z,7.80
2019-03-23T00:10:08.156Z,7.70
2019-03-23T00:11:05.139Z,7.70
2019-03-23T00:12:05.425Z,7.70
2019-03-23T00:13:05.617Z,7.70
2019-03-23T00:14:07.240Z,7.60
2019-03-23T00:15:07.800Z,7.60
2019-03-23T00:16:04.866Z,7.60
2019-03-23T00:17:07.649Z,7.60
2019-03-23T00:18:05.052Z,7.60
2019-03-23T00:19:07.865Z,7.50
2019-03-23T00:20:07.360Z,7.60
2019-03-23T00:21:05.343Z,7.50
2019-03-23T00:22:05.496Z,7.50
2019-03-23T00:23:08.234Z,7.50
2019-03-23T00:24:05.423Z,7.50
2019-03-23T00:25:05.585Z,7.50
2019-03-23T00:26:04.700Z,7.50
2019-03-23T00:27:05.036Z,7.50
2019-03-23T00:28:05.384Z,7.50
2019-03-23T00:29:10.812Z,7.40
2019-03-23T00:30:04.814Z,7.40
2019-03-23T00:31:09.988Z,7.40
2019-03-23T00:32:05.044Z,7.40
2019-03-23T00:33:05.228Z,7.40
2019-03-23T00:34:05.466Z,7.40
2019-03-23T00:35:07.364Z,7.40
2019-03-23T00:36:05.418Z,7.40
2019-03-23T00:37:05.606Z,7.40
2019-03-23T00:38:04.754Z,7.30
2019-03-23T00:39:04.935Z,7.40
2019-03-23T00:40:05.042Z,7.40
2019-03-23T00:41:05.186Z,7.40
2019-03-23T00:42:05.319Z,7.30
2019-03-23T00:43:05.409Z,7.40
2019-03-23T00:44:06.488Z,7.30
2019-03-23T00:45:05.473Z,7.30
2019-03-23T00:46:05.639Z,7.30
2019-03-23T00:47:04.763Z,7.30
2019-03-23T00:48:04.898Z,7.30
2019-03-23T00:49:05.190Z,7.30
2019-03-23T00:50:07.824Z,7.30
2019-03-23T00:51:04.850Z,7.30
2019-03-23T00:52:07.495Z,7.20
2019-03-23T00:53:05.531Z,7.20
2019-03-23T00:54:07.199Z,7.20
2019-03-23T00:55:07.901Z,7.20
2019-03-23T00:56:04.926Z,7.20
2019-03-23T00:57:07.712Z,7.20
2019-03-23T00:58:04.895Z,7.20
2019-03-23T00:59:05.087Z,7.20
2019-03-23T01:00:05.220Z,7.10
2019-03-23T01:01:07.897Z,7.10
2019-03-23T01:02:07.505Z,7.10
2019-03-23T01:03:08.124Z,7.10
2019-03-23T01:04:05.211Z,7.10
2019-03-23T01:05:05.480Z,7.10
2019-03-23T01:06:05.671Z,7.10
2019-03-23T01:07:07.433Z,7.00
2019-03-23T01:08:07.953Z,7.00
2019-03-23T01:09:05.053Z,7.00
2019-03-23T01:10:05.202Z,7.00
2019-03-23T01:11:07.898Z,7.00
2019-03-23T01:12:04.840Z,7.00
2019-03-23T01:13:05.007Z,7.00
2019-03-23T01:14:05.297Z,7.00
2019-03-23T01:15:08.154Z,6.90
2019-03-23T01:16:05.254Z,6.90
2019-03-23T01:17:05.461Z,6.90
2019-03-23T01:18:08.149Z,6.90
2019-03-23T01:19:05.189Z,6.90
2019-03-23T01:20:05.475Z,6.90
2019-03-23T01:21:04.764Z,6.90
2019-03-23T01:22:09.933Z,6.80
2019-03-23T01:23:05.016Z,6.80
2019-03-23T01:24:05.283Z,6.80
2019-03-23T01:25:05.514Z,6.80
2019-03-23T01:26:07.209Z,6.80
2019-03-23T01:27:05.373Z,6.70
2019-03-23T01:28:08.037Z,6.70
2019-03-23T01:29:04.998Z,6.70
2019-03-23T01:30:05.300Z,6.70
2019-03-23T01:31:05.639Z,6.70
2019-03-23T01:32:04.920Z,6.70
2019-03-23T01:33:05.141Z,6.70
2019-03-23T01:34:05.322Z,6.70
2019-03-23T01:35:07.995Z,6.60
2019-03-23T01:36:07.533Z,6.60
2019-03-23T01:37:05.625Z,6.60
2019-03-23T01:39:08.077Z,6.60
2019-03-23T01:40:05.169Z,6.60
2019-03-23T01:41:05.323Z,6.60
2019-03-23T01:42:05.470Z,6.60
2019-03-23T01:43:04.708Z,6.50
2019-03-23T01:44:12.458Z,6.50
2019-03-23T01:45:07.915Z,6.40
2019-03-23T01:46:04.921Z,6.50
2019-03-23T01:47:05.144Z,6.40
2019-03-23T01:48:05.326Z,6.40
2019-03-23T01:49:07.979Z,6.40
2019-03-23T01:50:04.945Z,6.40
2019-03-23T01:51:05.126Z,6.40
2019-03-23T01:52:05.402Z,6.40
2019-03-23T01:53:08.071Z,6.40
2019-03-23T01:54:05.226Z,6.40
2019-03-23T01:55:05.517Z,6.40
2019-03-23T01:56:09.989Z,6.40
2019-03-23T01:57:07.908Z,6.40
2019-03-23T01:58:05.027Z,6.40
2019-03-23T01:59:05.235Z,6.50
2019-03-23T02:00:04.921Z,6.40
2019-03-23T02:01:05.034Z,6.40
2019-03-23T02:02:05.109Z,6.50
2019-03-23T02:03:07.867Z,6.40
2019-03-23T02:04:04.867Z,6.40
2019-03-23T02:05:05.039Z,6.40
2019-03-23T02:06:07.687Z,6.30
2019-03-23T02:07:13.327Z,6.40
2019-03-23T02:08:05.340Z,6.30
2019-03-23T02:09:05.410Z,6.30
2019-03-23T02:10:10.650Z,6.30
2019-03-23T02:11:05.798Z,6.20
2019-03-23T02:12:04.967Z,6.30
2019-03-23T02:13:07.729Z,6.20
2019-03-23T02:14:07.319Z,6.30
2019-03-23T02:15:05.285Z,6.20
2019-03-23T02:16:05.437Z,6.20
2019-03-23T02:17:05.662Z,6.20
2019-03-23T02:18:04.994Z,6.20
2019-03-23T02:19:07.764Z,6.20
2019-03-23T02:20:04.786Z,6.20
2019-03-23T02:21:04.911Z,6.20
2019-03-23T02:22:05.214Z,6.20
2019-03-23T02:23:07.994Z,6.20
2019-03-23T02:24:05.017Z,6.20
2019-03-23T02:25:05.213Z,6.20
2019-03-23T02:26:07.912Z,6.20
2019-03-23T02:27:07.396Z,6.20
2019-03-23T02:28:05.391Z,6.10
2019-03-23T02:29:05.770Z,6.20
2019-03-23T02:30:05.138Z,6.10
2019-03-23T02:31:07.240Z,6.10
2019-03-23T02:32:05.674Z,6.10
2019-03-23T02:33:04.972Z,6.10
2019-03-23T02:34:07.574Z,6.10
2019-03-23T02:35:05.546Z,6.10
2019-03-23T02:36:07.271Z,6.00
2019-03-23T02:37:07.754Z,6.00
2019-03-23T02:38:04.845Z,6.00
2019-03-23T02:39:05.098Z,6.00
2019-03-23T02:40:07.784Z,6.00
2019-03-23T02:41:04.773Z,6.00
2019-03-23T02:42:04.896Z,6.00
2019-03-23T02:43:05.192Z,5.90
2019-03-23T02:44:05.441Z,6.00
2019-03-23T02:45:10.791Z,5.90
2019-03-23T02:46:12.370Z,5.90
2019-03-23T02:47:13.080Z,6.00
2019-03-23T02:48:05.201Z,5.90
2019-03-23T02:49:07.918Z,5.90
2019-03-23T02:50:04.946Z,5.90
2019-03-23T02:51:05.283Z,5.90
2019-03-23T02:52:05.454Z,5.90
2019-03-23T02:53:08.357Z,5.90
2019-03-23T02:54:07.944Z,5.90
2019-03-23T02:55:04.912Z,5.90
2019-03-23T02:56:05.014Z,5.90
2019-03-23T02:57:05.270Z,5.80
2019-03-23T02:58:08.176Z,5.80
2019-03-23T02:59:07.774Z,5.80
2019-03-23T03:00:04.729Z,5.80
2019-03-23T03:01:05.105Z,5.70
2019-03-23T03:02:07.905Z,5.70
2019-03-23T03:03:05.040Z,5.70
2019-03-23T03:04:05.255Z,5.70
2019-03-23T03:05:15.458Z,5.70
2019-03-23T03:06:10.661Z,5.60
2019-03-23T03:07:07.216Z,5.70
2019-03-23T03:08:10.289Z,5.60
2019-03-23T03:09:05.257Z,5.70
2019-03-23T03:10:08.033Z,5.60
2019-03-23T03:11:05.049Z,5.60
2019-03-23T03:12:05.174Z,5.60
2019-03-23T03:13:08.058Z,5.60
2019-03-23T03:14:10.231Z,5.60
2019-03-23T03:15:05.297Z,5.60
2019-03-23T03:16:07.961Z,5.60
2019-03-23T03:17:07.569Z,5.60
2019-03-23T03:18:07.199Z,5.60
2019-03-23T03:19:05.206Z,5.50
2019-03-23T03:20:05.545Z,5.50
2019-03-23T03:21:04.763Z,5.50
2019-03-23T03:22:10.041Z,5.50
2019-03-23T03:23:05.092Z,5.50
2019-03-23T03:24:05.325Z,5.50
2019-03-23T03:25:08.215Z,5.50
2019-03-23T03:26:07.803Z,5.50
2019-03-23T03:27:07.304Z,5.50
2019-03-23T03:28:13.152Z,5.50
2019-03-23T03:29:07.829Z,5.50
2019-03-23T03:30:07.360Z,5.50
2019-03-23T03:31:07.954Z,5.50
2019-03-23T03:32:04.949Z,5.50
2019-03-23T03:33:05.147Z,5.50
2019-03-23T03:34:07.921Z,5.50
2019-03-23T03:35:04.926Z,5.50
2019-03-23T03:36:07.703Z,5.50
2019-03-23T03:37:07.269Z,5.50
2019-03-23T03:38:07.803Z,5.50
2019-03-23T03:39:04.827Z,5.50
2019-03-23T03:40:05.070Z,5.40
2019-03-23T03:41:05.307Z,5.40
2019-03-23T03:42:05.507Z,5.40
2019-03-23T03:43:07.254Z,5.40
2019-03-23T03:44:07.852Z,5.30
2019-03-23T03:45:04.985Z,5.40
2019-03-23T03:46:07.879Z,5.30
2019-03-23T03:47:07.506Z,5.40
2019-03-23T03:48:08.289Z,5.30
2019-03-23T03:49:12.051Z,5.40
2019-03-23T03:50:05.125Z,5.40
2019-03-23T03:51:05.242Z,5.40
2019-03-23T03:52:07.951Z,5.40
2019-03-23T03:53:05.146Z,5.40
2019-03-23T03:54:05.301Z,5.40
2019-03-23T03:55:08.012Z,5.40
2019-03-23T03:56:05.185Z,5.30
2019-03-23T03:57:08.054Z,5.40
2019-03-23T03:58:05.182Z,5.30
2019-03-23T03:59:07.846Z,5.40
2019-03-23T04:00:07.407Z,5.30
2019-03-23T04:01:07.960Z,5.30
2019-03-23T04:02:07.448Z,5.30
2019-03-23T04:03:05.621Z,5.30
2019-03-23T04:04:05.001Z,5.30
2019-03-23T04:05:07.736Z,5.30
2019-03-23T04:06:07.278Z,5.30
2019-03-23T04:07:07.780Z,5.20
2019-03-23T04:08:10.772Z,5.30
2019-03-23T04:09:05.161Z,5.20
2019-03-23T04:10:05.316Z,5.20
2019-03-23T04:11:08.045Z,5.20
2019-03-23T04:12:05.119Z,5.20
2019-03-23T04:13:05.355Z,5.30
2019-03-23T04:14:08.032Z,5.20
2019-03-23T04:15:05.169Z,5.20
2019-03-23T04:16:05.343Z,5.20
2019-03-23T04:17:05.544Z,5.20
2019-03-23T04:18:05.646Z,5.20
2019-03-23T04:19:04.822Z,5.20
2019-03-23T04:20:04.963Z,5.30
2019-03-23T04:21:07.649Z,5.20
2019-03-23T04:22:04.678Z,5.20
2019-03-23T04:23:07.421Z,5.20
2019-03-23T04:24:07.999Z,5.20
2019-03-23T04:25:05.126Z,5.20
2019-03-23T04:26:07.837Z,5.10
2019-03-23T04:27:07.424Z,5.10
2019-03-23T04:28:05.440Z,5.10
2019-03-23T04:29:10.658Z,5.00
2019-03-23T04:30:04.718Z,5.10
2019-03-23T04:31:07.444Z,5.00
2019-03-23T04:32:08.152Z,5.00
2019-03-23T04:33:05.226Z,5.00
2019-03-23T04:34:05.540Z,4.90
2019-03-23T04:35:04.727Z,5.00
2019-03-23T04:36:04.935Z,4.90
2019-03-23T04:37:05.152Z,4.90
2019-03-23T04:38:07.850Z,4.90
2019-03-23T04:39:04.850Z,4.90
2019-03-23T04:40:05.084Z,4.90
2019-03-23T04:41:05.311Z,4.90
2019-03-23T04:42:05.503Z,4.90
2019-03-23T04:43:04.679Z,4.90
2019-03-23T04:44:07.355Z,4.90
2019-03-23T04:45:05.374Z,4.90
2019-03-23T04:46:05.549Z,4.90
2019-03-23T04:47:04.860Z,4.90
2019-03-23T04:48:12.818Z,4.90
2019-03-23T04:49:04.995Z,4.90
2019-03-23T04:50:05.380Z,4.90
2019-03-23T04:51:08.086Z,4.90
2019-03-23T04:52:05.114Z,4.90
2019-03-23T04:53:05.255Z,4.90
2019-03-23T04:54:05.375Z,4.90
2019-03-23T04:55:05.637Z,4.90
2019-03-23T04:56:04.764Z,4.90
2019-03-23T04:57:04.969Z,4.90
2019-03-23T04:58:07.663Z,4.80
2019-03-23T04:59:08.197Z,4.80
2019-03-23T05:00:07.707Z,4.70
2019-03-23T05:01:04.697Z,4.70
2019-03-23T05:02:04.926Z,4.80
2019-03-23T05:03:05.211Z,4.80
2019-03-23T05:04:07.859Z,4.70
2019-03-23T05:05:04.915Z,4.70
2019-03-23T05:06:07.822Z,4.70
2019-03-23T05:07:09.889Z,4.70
2019-03-23T05:08:04.943Z,4.70
2019-03-23T05:09:05.192Z,4.70
2019-03-23T05:10:07.233Z,4.70
2019-03-23T05:11:05.430Z,4.70
2019-03-23T05:12:05.750Z,4.70
2019-03-23T05:13:09.978Z,4.70
2019-03-23T05:14:07.807Z,4.70
2019-03-23T05:15:07.413Z,4.70
2019-03-23T05:16:05.527Z,4.70
2019-03-23T05:17:04.746Z,4.70
2019-03-23T05:18:05.015Z,4.70
2019-03-23T05:19:05.227Z,4.70
2019-03-23T05:20:08.004Z,4.70
2019-03-23T05:21:04.958Z,4.70
2019-03-23T05:22:05.074Z,4.70
2019-03-23T05:23:07.920Z,4.70
2019-03-23T05:24:10.034Z,4.70
2019-03-23T05:25:08.049Z,4.70
2019-03-23T05:26:05.170Z,4.70
2019-03-23T05:27:05.445Z,4.70
2019-03-23T05:28:05.321Z,4.70
2019-03-23T05:29:05.459Z,4.70
2019-03-23T05:30:05.647Z,4.70
2019-03-23T05:31:07.266Z,4.70
2019-03-23T05:32:05.357Z,4.70
2019-03-23T05:33:05.615Z,4.70
2019-03-23T05:34:04.919Z,4.70
2019-03-23T05:35:05.382Z,4.70
2019-03-23T05:36:05.726Z,4.70
2019-03-23T05:37:12.632Z,4.70
2019-03-23T05:38:08.313Z,4.80
2019-03-23T05:39:10.427Z,4.70
2019-03-23T05:40:10.490Z,4.80
2019-03-23T05:41:08.056Z,4.80
2019-03-23T05:42:07.677Z,4.90
2019-03-23T05:43:04.743Z,4.90
2019-03-23T05:44:07.528Z,5.00
2019-03-23T05:45:05.561Z,5.00
2019-03-23T05:46:04.758Z,5.10
2019-03-23T05:47:07.548Z,5.20
2019-03-23T05:48:05.736Z,5.20
2019-03-23T05:49:04.878Z,5.20
2019-03-23T05:50:05.132Z,5.30
2019-03-23T05:51:05.302Z,5.30
2019-03-23T05:52:05.544Z,5.40
2019-03-23T05:53:07.292Z,5.50
2019-03-23T05:54:07.908Z,5.50
2019-03-23T05:55:04.954Z,5.50
2019-03-23T05:56:05.144Z,5.70
2019-03-23T05:57:05.310Z,5.70
2019-03-23T05:58:04.896Z,5.80
2019-03-23T05:59:07.653Z,6.10
2019-03-23T06:00:10.051Z,6.20
2019-03-23T06:01:05.170Z,6.20
2019-03-23T06:02:07.958Z,6.50
2019-03-23T06:03:07.539Z,6.70
2019-03-23T06:04:08.232Z,6.90
2019-03-23T06:05:05.413Z,6.90
2019-03-23T06:06:05.583Z,7.10
2019-03-23T06:07:04.689Z,7.20
2019-03-23T06:08:07.321Z,7.60
2019-03-23T06:09:07.922Z,7.80
2019-03-23T06:10:05.013Z,7.70
2019-03-23T06:11:07.673Z,8.10
2019-03-23T06:12:05.781Z,8.10
2019-03-23T06:13:07.492Z,8.40
2019-03-23T06:14:08.141Z,8.60
2019-03-23T06:15:05.315Z,8.60
2019-03-23T06:16:05.696Z,8.70
2019-03-23T06:17:04.847Z,8.80
2019-03-23T06:18:07.518Z,9.20
2019-03-23T06:19:05.583Z,9.10
2019-03-23T06:20:04.854Z,9.30
2019-03-23T06:21:05.082Z,9.40
2019-03-23T06:22:07.903Z,9.70
2019-03-23T06:23:04.979Z,9.70
2019-03-23T06:24:07.861Z,9.90
2019-03-23T06:25:05.151Z,10.00
2019-03-23T06:26:06.464Z,10.00
2019-03-23T06:27:04.712Z,10.20
2019-03-23T06:28:04.976Z,10.30
2019-03-23T06:29:05.137Z,10.40
2019-03-23T06:30:05.394Z,10.60
2019-03-23T06:31:08.130Z,10.70
2019-03-23T06:32:05.291Z,10.70
2019-03-23T06:33:08.191Z,10.90
2019-03-23T06:34:05.266Z,10.90
2019-03-23T06:35:05.515Z,11.00
2019-03-23T06:36:05.663Z,11.10
2019-03-23T06:37:05.021Z,11.30
2019-03-23T06:38:07.738Z,11.40
2019-03-23T06:39:05.297Z,11.50
2019-03-23T06:40:07.652Z,11.70
2019-03-23T06:41:04.687Z,11.70
2019-03-23T06:42:04.924Z,11.80
2019-03-23T06:43:05.024Z,11.90
2019-03-23T06:44:07.705Z,12.10
2019-03-23T06:45:07.380Z,12.20
2019-03-23T06:46:05.467Z,12.10
2019-03-23T06:47:08.201Z,12.30
2019-03-23T06:48:05.328Z,12.30
2019-03-23T06:49:04.952Z,12.40
2019-03-23T06:50:05.320Z,12.50
2019-03-23T06:51:05.616Z,12.50
2019-03-23T06:52:04.948Z,12.60
2019-03-23T06:53:07.763Z,12.70
2019-03-23T06:54:07.438Z,12.70
2019-03-23T06:55:10.531Z,12.80
2019-03-23T06:56:10.845Z,12.80
2019-03-23T06:57:07.419Z,12.90
2019-03-23T06:58:05.431Z,12.80
2019-03-23T06:59:08.149Z,12.90
2019-03-23T07:00:05.221Z,13.00
2019-03-23T07:01:05.452Z,13.00
2019-03-23T07:02:10.887Z,13.10
2019-03-23T07:03:04.871Z,13.10
2019-03-23T07:04:05.048Z,13.20
2019-03-23T07:05:10.239Z,13.30
2019-03-23T07:06:05.451Z,13.30
2019-03-23T07:07:04.876Z,13.40
2019-03-23T07:08:07.537Z,13.40
2019-03-23T07:09:15.485Z,13.40
2019-03-23T07:10:08.075Z,13.50
2019-03-23T07:11:07.622Z,13.60
2019-03-23T07:12:05.645Z,13.60
2019-03-23T07:13:12.471Z,13.60
2019-03-23T07:14:05.451Z,13.60
2019-03-23T07:15:05.541Z,13.70
2019-03-23T07:16:05.709Z,13.70
2019-03-23T07:17:04.882Z,13.70
2019-03-23T07:18:07.532Z,13.80
2019-03-23T07:19:10.591Z,13.80
2019-03-23T07:20:05.007Z,13.80
2019-03-23T07:21:10.328Z,13.90
2019-03-23T07:22:05.425Z,13.90
2019-03-23T07:23:05.670Z,13.90
2019-03-23T07:24:04.878Z,14.00
2019-03-23T07:25:10.266Z,14.00
2019-03-23T07:26:08.043Z,14.10
2019-03-23T07:27:05.068Z,14.00
2019-03-23T07:28:08.037Z,14.10
2019-03-23T07:29:05.310Z,14.10
2019-03-23T07:30:05.549Z,14.10
2019-03-23T07:31:12.520Z,14.10
2019-03-23T07:32:06.117Z,14.10
2019-03-23T07:33:08.067Z,14.10
2019-03-23T07:34:07.615Z,14.10
2019-03-23T07:35:04.644Z,14.10
2019-03-23T07:36:07.412Z,14.10
2019-03-23T07:37:08.059Z,14.20
2019-03-23T07:38:05.231Z,14.10
2019-03-23T07:39:07.842Z,14.20
2019-03-23T07:40:04.907Z,14.20
2019-03-23T07:41:05.253Z,14.20
2019-03-23T07:42:08.093Z,14.20
2019-03-23T07:43:05.072Z,14.20
2019-03-23T07:44:08.348Z,14.30
2019-03-23T07:45:08.191Z,14.20
2019-03-23T07:46:07.796Z,14.20
2019-03-23T07:47:05.034Z,14.20
2019-03-23T07:48:07.794Z,14.20
2019-03-23T07:49:04.955Z,14.20
2019-03-23T07:50:05.135Z,14.30
2019-03-23T07:51:05.350Z,14.30
2019-03-23T07:52:08.072Z,14.20
2019-03-23T07:53:07.627Z,14.20
2019-03-23T07:54:05.683Z,14.20
2019-03-23T07:55:04.870Z,14.20
2019-03-23T07:56:05.150Z,14.20
2019-03-23T07:57:05.544Z,14.20
2019-03-23T07:58:04.770Z,14.30
2019-03-23T07:59:05.019Z,14.30
2019-03-23T08:00:07.886Z,14.30
2019-03-23T08:01:04.990Z,14.30
2019-03-23T08:02:13.765Z,14.40
2019-03-23T08:03:05.444Z,14.40
2019-03-23T08:04:07.480Z,14.50
2019-03-23T08:05:05.465Z,14.50
2019-03-23T08:06:07.297Z,14.50
2019-03-23T08:07:05.346Z,14.50
2019-03-23T08:08:08.024Z,14.60
2019-03-23T08:09:07.532Z,14.60
2019-03-23T08:10:05.594Z,14.60
2019-03-23T08:11:07.543Z,14.70
2019-03-23T08:12:05.683Z,14.60
2019-03-23T08:13:07.538Z,14.70
2019-03-23T08:14:05.851Z,14.70
2019-03-23T08:15:05.078Z,14.70
2019-03-23T08:16:07.960Z,14.80
2019-03-23T08:17:05.005Z,14.70
2019-03-23T08:18:05.160Z,14.80
2019-03-23T08:19:05.338Z,14.80
2019-03-23T08:20:05.511Z,14.80
2019-03-23T08:21:05.705Z,14.80
2019-03-23T08:22:11.220Z,14.90
2019-03-23T08:23:08.025Z,14.90
2019-03-23T08:24:05.044Z,14.90
2019-03-23T08:25:07.670Z,14.90
2019-03-23T08:26:08.151Z,14.90
2019-03-23T08:27:05.157Z,15.00
2019-03-23T08:28:07.861Z,15.00
2019-03-23T08:29:04.916Z,15.00
2019-03-23T08:30:07.529Z,15.00
2019-03-23T08:31:05.514Z,15.10
2019-03-23T08:32:05.660Z,15.10
2019-03-23T08:33:07.341Z,15.20
2019-03-23T08:34:05.441Z,15.20
2019-03-23T08:35:05.698Z,15.20
2019-03-23T08:36:04.923Z,15.20
2019-03-23T08:37:12.634Z,15.30
2019-03-23T08:38:05.663Z,15.30
2019-03-23T08:39:04.773Z,15.30
2019-03-23T08:40:04.892Z,15.30
2019-03-23T08:41:07.619Z,15.40
2019-03-23T08:42:05.744Z,15.40
2019-03-23T08:43:04.942Z,15.50
2019-03-23T08:44:05.519Z,15.50
2019-03-23T08:45:08.383Z,15.60
2019-03-23T08:46:08.106Z,15.60
2019-03-23T08:47:10.214Z,15.60
2019-03-23T08:48:07.990Z,15.70
2019-03-23T08:49:05.071Z,15.60
2019-03-23T08:50:07.759Z,15.60
2019-03-23T08:51:07.398Z,15.70
2019-03-23T08:52:05.493Z,15.70
2019-03-23T08:53:05.635Z,15.70
2019-03-23T08:54:04.783Z,15.70
2019-03-23T08:55:04.929Z,15.70
2019-03-23T08:56:07.748Z,15.70
2019-03-23T08:57:04.728Z,15.80
2019-03-23T08:58:04.857Z,15.80
2019-03-23T08:59:07.554Z,15.80
2019-03-23T09:00:05.589Z,15.80
2019-03-23T09:01:04.742Z,15.90
2019-03-23T09:02:04.878Z,15.90
2019-03-23T09:03:07.766Z,15.90
2019-03-23T09:04:07.352Z,16.00
2019-03-23T09:05:07.869Z,16.00
2019-03-23T09:06:07.429Z,16.00
2019-03-23T09:07:05.612Z,16.00
2019-03-23T09:08:07.481Z,16.10
2019-03-23T09:09:05.558Z,16.10
2019-03-23T09:10:07.497Z,16.30
2019-03-23T09:11:05.594Z,16.20
2019-03-23T09:12:04.719Z,16.30
2019-03-23T09:13:04.788Z,16.30
2019-03-23T09:14:05.012Z,16.40
2019-03-23T09:15:12.925Z,16.50
2019-03-23T09:16:04.881Z,16.40
2019-03-23T09:17:05.074Z,16.50
2019-03-23T09:18:07.792Z,16.60
2019-03-23T09:19:07.501Z,16.60
2019-03-23T09:20:05.513Z,16.60
2019-03-23T09:21:05.716Z,16.70
2019-03-23T09:22:04.996Z,16.70
2019-03-23T09:23:05.190Z,16.70
2019-03-23T09:24:08.030Z,16.80
2019-03-23T09:25:07.652Z,16.80
2019-03-23T09:26:04.753Z,16.90
2019-03-23T09:27:07.474Z,17.00
2019-03-23T09:28:05.498Z,17.00
2019-03-23T09:29:05.757Z,17.00
2019-03-23T09:30:09.970Z,17.20
2019-03-23T09:31:07.555Z,17.20
2019-03-23T09:32:05.815Z,17.20
2019-03-23T09:33:10.262Z,17.30
2019-03-23T09:34:07.776Z,17.30
2019-03-23T09:35:04.783Z,17.30
2019-03-23T09:36:04.981Z,17.40
2019-03-23T09:37:05.131Z,17.50
2019-03-23T09:38:05.290Z,17.50
2019-03-23T09:39:05.540Z,17.50
2019-03-23T09:40:10.602Z,17.60
2019-03-23T09:41:13.316Z,17.70
2019-03-23T09:42:07.028Z,17.70
2019-03-23T09:43:05.352Z,17.70
2019-03-23T09:44:07.413Z,17.80
2019-03-23T09:45:05.347Z,17.90
2019-03-23T09:46:05.483Z,17.90
2019-03-23T09:47:05.623Z,17.90
2019-03-23T09:48:04.782Z,18.00
2019-03-23T09:49:04.988Z,18.00
2019-03-23T09:50:05.167Z,18.00
2019-03-23T09:51:05.446Z,18.10
2019-03-23T09:52:05.674Z,18.10
2019-03-23T09:53:05.029Z,18.10
2019-03-23T09:54:07.924Z,18.20
2019-03-23T09:55:05.087Z,18.20
2019-03-23T09:56:07.976Z,18.20
2019-03-23T09:57:07.580Z,18.30
2019-03-23T09:58:15.752Z,18.30
2019-03-23T09:59:07.302Z,18.30
2019-03-23T10:00:07.886Z,18.30
2019-03-23T10:01:04.932Z,18.30
2019-03-23T10:02:05.235Z,18.40
2019-03-23T10:03:05.338Z,18.40
2019-03-23T10:04:08.050Z,18.40
2019-03-23T10:05:05.087Z,18.40
2019-03-23T10:06:06.032Z,18.40
2019-03-23T10:07:15.505Z,18.40
2019-03-23T10:08:05.511Z,18.40
2019-03-23T10:09:05.678Z,18.40
2019-03-23T10:10:04.823Z,18.40
2019-03-23T10:11:07.561Z,18.50
2019-03-23T10:12:05.627Z,18.40
2019-03-23T10:13:04.815Z,18.40
2019-03-23T10:14:05.570Z,18.40
2019-03-23T10:15:04.848Z,18.50
2019-03-23T10:16:05.031Z,18.50
2019-03-23T10:17:05.263Z,18.50
2019-03-23T10:18:05.424Z,18.60
2019-03-23T10:19:08.196Z,18.60
2019-03-23T10:20:05.252Z,18.60
2019-03-23T10:21:05.612Z,18.60
2019-03-23T10:22:04.857Z,18.60
2019-03-23T10:23:05.305Z,18.60
2019-03-23T10:24:08.195Z,18.60
2019-03-23T10:25:10.382Z,18.60
2019-03-23T10:26:05.378Z,18.60
2019-03-23T10:27:05.597Z,18.70
2019-03-23T10:28:04.676Z,18.70
2019-03-23T10:29:07.540Z,18.70
2019-03-23T10:30:08.120Z,18.80
2019-03-23T10:31:05.118Z,18.70
2019-03-23T10:32:07.860Z,18.80
2019-03-23T10:33:04.912Z,18.80
2019-03-23T10:34:05.158Z,18.80
2019-03-23T10:35:07.843Z,18.80
2019-03-23T10:36:04.867Z,18.80
2019-03-23T10:37:05.091Z,18.80
2019-03-23T10:38:05.200Z,18.80
2019-03-23T10:39:05.405Z,18.80
2019-03-23T10:40:07.395Z,18.80
2019-03-23T10:41:07.270Z,18.80
2019-03-23T10:42:05.284Z,18.80
2019-03-23T10:43:05.427Z,18.80
2019-03-23T10:44:05.567Z,18.80
2019-03-23T10:45:07.230Z,18.90
2019-03-23T10:46:07.923Z,18.90
2019-03-23T10:47:04.962Z,18.90
2019-03-23T10:48:05.581Z,18.90
2019-03-23T10:49:04.714Z,19.00
2019-03-23T10:50:10.008Z,19.10
2019-03-23T10:51:05.053Z,19.10
2019-03-23T10:52:05.196Z,19.10
2019-03-23T10:53:05.610Z,19.10
2019-03-23T10:54:04.829Z,19.20
2019-03-23T10:55:05.020Z,19.20
2019-03-23T10:56:07.649Z,19.20
2019-03-23T10:57:05.748Z,19.20
2019-03-23T10:58:07.581Z,19.20
2019-03-23T10:59:05.667Z,19.20
2019-03-23T11:00:04.931Z,19.20
2019-03-23T11:01:05.222Z,19.20
2019-03-23T11:02:05.540Z,19.30
2019-03-23T11:03:04.767Z,19.30
2019-03-23T11:04:04.962Z,19.30
2019-03-23T11:05:05.140Z,19.30
2019-03-23T11:06:05.346Z,19.30
2019-03-23T11:07:14.561Z,19.30
2019-03-23T11:08:05.392Z,19.40
2019-03-23T11:09:05.588Z,19.40
2019-03-23T11:10:04.742Z,19.40
2019-03-23T11:11:07.370Z,19.40
2019-03-23T11:12:08.018Z,19.40
2019-03-23T11:13:05.011Z,19.40
2019-03-23T11:14:05.204Z,19.50
2019-03-23T11:15:05.369Z,19.50
2019-03-23T11:16:05.539Z,19.50
2019-03-23T11:17:09.807Z,19.60
2019-03-23T11:18:04.822Z,19.60
2019-03-23T11:19:09.778Z,19.60
2019-03-23T11:20:04.747Z,19.60
2019-03-23T11:21:07.374Z,19.50
2019-03-23T11:22:07.969Z,19.60
2019-03-23T11:23:05.085Z,19.60
2019-03-23T11:24:05.243Z,19.60
2019-03-23T11:25:05.381Z,19.60
2019-03-23T11:26:05.644Z,19.60
2019-03-23T11:27:07.301Z,19.70
2019-03-23T11:28:05.397Z,19.70
2019-03-23T11:29:05.458Z,19.70
2019-03-23T11:30:08.282Z,19.70
2019-03-23T11:31:05.408Z,19.70
2019-03-23T11:32:08.056Z,19.70
2019-03-23T11:33:07.621Z,19.70
2019-03-23T11:34:04.760Z,19.70
2019-03-23T11:35:04.966Z,19.70
2019-03-23T11:36:12.589Z,19.80
2019-03-23T11:37:05.546Z,19.80
2019-03-23T11:38:04.933Z,19.80
2019-03-23T11:39:07.975Z,19.90
2019-03-23T11:40:10.138Z,19.90
2019-03-23T11:41:05.116Z,19.90
2019-03-23T11:42:05.305Z,19.90
2019-03-23T11:43:08.102Z,19.90
2019-03-23T11:44:04.915Z,19.90
2019-03-23T11:45:04.978Z,19.90
2019-03-23T11:46:07.691Z,20.00
2019-03-23T11:47:05.656Z,20.00
2019-03-23T11:48:04.768Z,20.00
2019-03-23T11:49:04.931Z,20.00
2019-03-23T11:50:05.043Z,20.00
2019-03-23T11:51:05.258Z,20.00
2019-03-23T11:52:05.425Z,20.00
2019-03-23T11:53:08.275Z,20.00
2019-03-23T11:54:07.937Z,20.00
2019-03-23T11:55:05.045Z,19.90
2019-03-23T11:56:05.157Z,19.90
2019-03-23T11:57:05.248Z,20.00
2019-03-23T11:58:05.347Z,19.90
2019-03-23T11:59:05.503Z,20.00
2019-03-23T12:00:08.265Z,20.00
2019-03-23T12:01:05.272Z,20.00
2019-03-23T12:02:05.370Z,20.00
2019-03-23T12:03:05.436Z,20.00
2019-03-23T12:04:07.785Z,20.00
2019-03-23T12:05:07.332Z,20.00
2019-03-23T12:06:07.838Z,20.00
2019-03-23T12:07:04.863Z,19.90
2019-03-23T12:08:07.763Z,20.00
2019-03-23T12:09:04.922Z,19.90
2019-03-23T12:10:05.135Z,20.00
2019-03-23T12:11:10.323Z,20.00
2019-03-23T12:12:05.247Z,20.00
2019-03-23T12:13:07.823Z,20.10
2019-03-23T12:14:07.457Z,20.10
2019-03-23T12:15:08.029Z,20.10
2019-03-23T12:16:07.616Z,20.10
2019-03-23T12:17:05.592Z,20.10
2019-03-23T12:18:07.335Z,20.10
2019-03-23T12:19:10.455Z,20.20
2019-03-23T12:20:05.470Z,20.10
2019-03-23T12:21:08.261Z,20.10
2019-03-23T12:22:05.259Z,20.10
2019-03-23T12:23:05.503Z,20.10
2019-03-23T12:24:08.209Z,20.10
2019-03-23T12:25:07.757Z,20.10
2019-03-23T12:26:07.263Z,20.10
2019-03-23T12:27:05.248Z,20.10
2019-03-23T12:28:05.364Z,20.10
2019-03-23T12:29:05.535Z,20.10
2019-03-23T12:30:07.399Z,20.10
2019-03-23T12:31:07.343Z,20.00
2019-03-23T12:32:10.545Z,20.10
2019-03-23T12:33:05.632Z,20.00
2019-03-23T12:34:04.946Z,20.00
2019-03-23T12:35:05.209Z,20.10
2019-03-23T12:36:07.909Z,20.10
2019-03-23T12:37:05.016Z,20.00
2019-03-23T12:38:07.680Z,20.10
2019-03-23T12:39:05.780Z,20.10
2019-03-23T12:40:07.401Z,20.10
2019-03-23T12:41:11.457Z,20.10
2019-03-23T12:42:04.841Z,20.20
2019-03-23T12:43:12.663Z,20.20
2019-03-23T12:44:05.679Z,20.20
2019-03-23T12:45:04.832Z,20.20
2019-03-23T12:46:07.521Z,20.20
2019-03-23T12:47:05.556Z,20.20
2019-03-23T12:48:04.666Z,20.30
2019-03-23T12:49:07.392Z,20.30
2019-03-23T12:50:08.025Z,20.30
2019-03-23T12:51:05.084Z,20.30
2019-03-23T12:52:05.213Z,20.30
2019-03-23T12:53:05.285Z,20.40
2019-03-23T12:54:05.328Z,20.40
2019-03-23T12:55:07.952Z,20.40
2019-03-23T12:56:04.959Z,20.40
2019-03-23T12:57:05.088Z,20.40
2019-03-23T12:58:07.737Z,20.50
2019-03-23T12:59:07.257Z,20.50
2019-03-23T13:00:07.793Z,20.50
2019-03-23T13:01:04.764Z,20.50
2019-03-23T13:02:07.457Z,20.50
2019-03-23T13:03:05.405Z,20.50
2019-03-23T13:04:07.433Z,20.50
2019-03-23T13:05:05.612Z,20.50
2019-03-23T13:06:04.826Z,20.50